Base ULM du Burgaud

FR-0423 · Tarn-et-Garonne, Occitanie, 法国

罗盘
风向 的 风向 的 风向 到 风向 270° Base ULM du Burgaud 14/32
风: 11 kt, 4 beaufort

7 kt

8 kt
改变
0 5.000 10.000 15.000 20.000
BKN 1.700 ft
BKN 6.000 ft
BKN 19.000 ft
METAR LFBO 281200Z AUTO 27011KT 240V300 9999 BKN017 BKN060 BKN190 12/09 Q1018 TEMPO 4000 -SHRA BKN020 BKN045TCU

METAR Base ULM du Burgaud - FR-0423

Base ULM du Burgaud是,法国中的小机场。 该机场有一条跑道: 14/32. 该领域的国际民航组织标志是FR-0423.

这份报告是针对2022年11月28日 13:00, 当地时间在Toulouse-Blagnac Airport进行的。

机场观察

风向为270°,速度为11 kt。 风向在240°和300°之间变化。

可见度为10 km 或者更多。

有碎云在1.700 ft的高度, 碎云在6.000 ft的高度 和 碎云在19.000 ft的高度。 破损或更高的上限为1.700 ft。

温度和风寒是12 °C。 露点为9 °C,相对湿度为82%。 海平面上的气压为1018 hPa (QNH)。

发展趋势

  • 暂时的

    可变方向的风很小或没有。 可见性变为4 km。 重大天气:光 阵雨 雨。 碎云在2.000 ft的高度 和 碎云 高耸的积云在4.500 ft的高度.

白天

今天,太阳从08:06升起,在17:20降落。 这适用于Base ULM du Burgaud,世界夏令时可能有所不同。 当地时间与世界标准时间之间的时差为+1 小时。 当前,没有夏令时有效。

公司介绍

我们没有关于这个机场的公司信息。

体会

到Vliegles.nl去找飞行课程,跳伞和其他飞行体验。 浏览页面,了解Base ULM du Burgaud附近所有可用的活动。 你也可以使用搜索功能来寻找你所在地附近的特定飞行课程、跳伞或其他飞行体验。

跑道

Id 标题 侧风 逆风 侧风 %
14/32 140°-320° 8 kt 7 kt 77 %

逆风成分最大的方向会被突出显示,并用于横风计算。 这并不一定意味着这个方向在使用。

乌云

1.700 ft BKN 碎云
6.000 ft BKN 碎云
19.000 ft BKN 碎云
2.000 ft BKN 暂时的 碎云
4.500 ft BKN 暂时的 碎云 高耸的积云

温度 & 天气

温度 12 °C
露点 9 °C
相对湿度 82%
Kp-index 3 (0-9)

白天

日出
08:04
中午
12:42
日落
17:20 (4:13)

小工具

你想在你的网站上有一个关于Base ULM du Burgaud的当前航空天气(METAR)的小部件吗?

显示HTML代码

我们和第三方通过cookies跟踪您在我们网站上的互联网行为。如果你继续,我们认为你同意我们的饼干政策